sensor_id;sensor_type;location;lat;lon;timestamp;temperature;humidity
53282;DHT22;39167;52.794;6.892;2022-09-09T00:00:18;14.30;99.90
53282;DHT22;39167;52.794;6.892;2022-09-09T00:06:09;14.30;99.90
53282;DHT22;39167;52.794;6.892;2022-09-09T00:11:13;14.30;99.90
53282;DHT22;39167;52.794;6.892;2022-09-09T00:13:46;14.20;99.90
53282;DHT22;39167;52.794;6.892;2022-09-09T00:16:23;14.20;99.90
53282;DHT22;39167;52.794;6.892;2022-09-09T00:22:15;14.20;99.90
53282;DHT22;39167;52.794;6.892;2022-09-09T00:24:51;14.20;99.90
53282;DHT22;39167;52.794;6.892;2022-09-09T00:27:36;14.20;99.90
53282;DHT22;39167;52.794;6.892;2022-09-09T00:30:19;14.20;99.90
53282;DHT22;39167;52.794;6.892;2022-09-09T00:32:54;14.20;99.90
53282;DHT22;39167;52.794;6.892;2022-09-09T00:35:35;14.10;99.90
53282;DHT22;39167;52.794;6.892;2022-09-09T00:38:10;14.10;99.90
53282;DHT22;39167;52.794;6.892;2022-09-09T00:40:52;14.10;99.90
53282;DHT22;39167;52.794;6.892;2022-09-09T00:43:38;14.00;99.90
53282;DHT22;39167;52.794;6.892;2022-09-09T00:54:43;14.10;99.90
53282;DHT22;39167;52.794;6.892;2022-09-09T00:59:45;14.00;99.90
53282;DHT22;39167;52.794;6.892;2022-09-09T01:02:30;14.00;99.90
53282;DHT22;39167;52.794;6.892;2022-09-09T01:05:07;14.10;99.90
53282;DHT22;39167;52.794;6.892;2022-09-09T01:07:35;14.10;99.90
53282;DHT22;39167;52.794;6.892;2022-09-09T01:10:07;14.20;99.90
53282;DHT22;39167;52.794;6.892;2022-09-09T01:12:43;14.30;99.90
53282;DHT22;39167;52.794;6.892;2022-09-09T01:15:24;14.40;99.90
53282;DHT22;39167;52.794;6.892;2022-09-09T01:26:10;14.50;99.90
53282;DHT22;39167;52.794;6.892;2022-09-09T01:28:38;14.50;99.90
53282;DHT22;39167;52.794;6.892;2022-09-09T01:31:05;14.60;99.90
53282;DHT22;39167;52.794;6.892;2022-09-09T01:33:32;14.60;99.90
53282;DHT22;39167;52.794;6.892;2022-09-09T01:36:21;14.60;99.90
53282;DHT22;39167;52.794;6.892;2022-09-09T01:38:48;14.60;99.90
53282;DHT22;39167;52.794;6.892;2022-09-09T01:41:14;14.60;99.90
53282;DHT22;39167;52.794;6.892;2022-09-09T01:43:40;14.60;99.90
53282;DHT22;39167;52.794;6.892;2022-09-09T01:46:05;14.60;99.90
53282;DHT22;39167;52.794;6.892;2022-09-09T01:48:31;14.70;99.90
53282;DHT22;39167;52.794;6.892;2022-09-09T01:50:57;14.70;99.90
53282;DHT22;39167;52.794;6.892;2022-09-09T01:53:23;14.70;99.90
53282;DHT22;39167;52.794;6.892;2022-09-09T02:04:23;14.70;99.90
53282;DHT22;39167;52.794;6.892;2022-09-09T02:06:56;14.70;99.90
53282;DHT22;39167;52.794;6.892;2022-09-09T02:09:26;14.60;99.90
53282;DHT22;39167;52.794;6.892;2022-09-09T02:12:05;14.60;99.90
53282;DHT22;39167;52.794;6.892;2022-09-09T02:14:37;14.60;99.90
53282;DHT22;39167;52.794;6.892;2022-09-09T02:17:10;14.60;99.90
53282;DHT22;39167;52.794;6.892;2022-09-09T02:19:46;14.60;99.90
53282;DHT22;39167;52.794;6.892;2022-09-09T02:22:17;14.60;99.90
53282;DHT22;39167;52.794;6.892;2022-09-09T02:24:44;14.50;99.90
53282;DHT22;39167;52.794;6.892;2022-09-09T02:27:12;14.70;99.90
53282;DHT22;39167;52.794;6.892;2022-09-09T02:29:42;14.50;99.90
53282;DHT22;39167;52.794;6.892;2022-09-09T02:32:12;14.50;99.90
53282;DHT22;39167;52.794;6.892;2022-09-09T02:34:43;14.50;99.90
53282;DHT22;39167;52.794;6.892;2022-09-09T02:37:11;14.50;99.90
53282;DHT22;39167;52.794;6.892;2022-09-09T02:39:37;14.50;99.90
53282;DHT22;39167;52.794;6.892;2022-09-09T02:42:04;14.50;99.90
53282;DHT22;39167;52.794;6.892;2022-09-09T02:44:30;14.50;99.90
53282;DHT22;39167;52.794;6.892;2022-09-09T02:50:13;14.50;99.90
53282;DHT22;39167;52.794;6.892;2022-09-09T02:58:10;14.50;99.90
53282;DHT22;39167;52.794;6.892;2022-09-09T03:00:38;14.50;99.90
53282;DHT22;39167;52.794;6.892;2022-09-09T03:03:06;14.60;99.90
53282;DHT22;39167;52.794;6.892;2022-09-09T03:05:32;14.60;99.90
53282;DHT22;39167;52.794;6.892;2022-09-09T03:07:58;14.60;99.90
53282;DHT22;39167;52.794;6.892;2022-09-09T03:10:24;14.60;99.90
53282;DHT22;39167;52.794;6.892;2022-09-09T03:12:49;14.50;99.90
53282;DHT22;39167;52.794;6.892;2022-09-09T03:15:16;14.60;99.90
53282;DHT22;39167;52.794;6.892;2022-09-09T03:17:42;14.60;99.90
53282;DHT22;39167;52.794;6.892;2022-09-09T03:20:08;14.50;99.90
53282;DHT22;39167;52.794;6.892;2022-09-09T03:22:34;14.50;99.90
53282;DHT22;39167;52.794;6.892;2022-09-09T03:25:00;14.50;99.90
53282;DHT22;39167;52.794;6.892;2022-09-09T03:27:28;14.50;99.90
53282;DHT22;39167;52.794;6.892;2022-09-09T03:29:54;14.50;99.90
53282;DHT22;39167;52.794;6.892;2022-09-09T03:32:21;14.50;99.90
53282;DHT22;39167;52.794;6.892;2022-09-09T03:34:48;14.50;99.90
53282;DHT22;39167;52.794;6.892;2022-09-09T03:37:16;14.50;99.90
53282;DHT22;39167;52.794;6.892;2022-09-09T03:39:43;14.50;99.90
53282;DHT22;39167;52.794;6.892;2022-09-09T03:42:09;14.50;99.90
53282;DHT22;39167;52.794;6.892;2022-09-09T03:44:37;14.50;99.90
53282;DHT22;39167;52.794;6.892;2022-09-09T03:47:03;14.50;99.90
53282;DHT22;39167;52.794;6.892;2022-09-09T03:49:29;14.40;99.90
53282;DHT22;39167;52.794;6.892;2022-09-09T03:51:56;14.40;99.90
53282;DHT22;39167;52.794;6.892;2022-09-09T03:54:23;14.40;99.90
53282;DHT22;39167;52.794;6.892;2022-09-09T03:56:49;14.40;99.90
53282;DHT22;39167;52.794;6.892;2022-09-09T03:59:15;14.40;99.90
53282;DHT22;39167;52.794;6.892;2022-09-09T04:01:41;14.40;99.90
53282;DHT22;39167;52.794;6.892;2022-09-09T04:04:07;14.40;99.90
53282;DHT22;39167;52.794;6.892;2022-09-09T04:06:33;14.40;99.90
53282;DHT22;39167;52.794;6.892;2022-09-09T04:08:58;14.40;99.90
53282;DHT22;39167;52.794;6.892;2022-09-09T04:11:25;14.40;99.90
53282;DHT22;39167;52.794;6.892;2022-09-09T04:13:50;14.40;99.90
53282;DHT22;39167;52.794;6.892;2022-09-09T04:16:16;14.40;99.90
53282;DHT22;39167;52.794;6.892;2022-09-09T04:18:42;14.40;99.90
53282;DHT22;39167;52.794;6.892;2022-09-09T04:21:09;14.40;99.90
53282;DHT22;39167;52.794;6.892;2022-09-09T04:23:36;14.40;99.90
53282;DHT22;39167;52.794;6.892;2022-09-09T04:26:02;14.40;99.90
53282;DHT22;39167;52.794;6.892;2022-09-09T04:28:30;14.50;99.90
53282;DHT22;39167;52.794;6.892;2022-09-09T04:30:56;14.40;99.90
53282;DHT22;39167;52.794;6.892;2022-09-09T04:33:25;14.40;99.90
53282;DHT22;39167;52.794;6.892;2022-09-09T04:35:52;14.40;99.90
53282;DHT22;39167;52.794;6.892;2022-09-09T04:38:20;14.40;99.90
53282;DHT22;39167;52.794;6.892;2022-09-09T04:40:49;14.40;99.90
53282;DHT22;39167;52.794;6.892;2022-09-09T04:43:15;14.40;99.90
53282;DHT22;39167;52.794;6.892;2022-09-09T04:45:41;14.40;99.90
53282;DHT22;39167;52.794;6.892;2022-09-09T04:48:07;14.40;99.90
53282;DHT22;39167;52.794;6.892;2022-09-09T04:50:35;14.30;99.90
53282;DHT22;39167;52.794;6.892;2022-09-09T04:53:05;14.30;99.90
53282;DHT22;39167;52.794;6.892;2022-09-09T04:55:31;14.30;99.90
53282;DHT22;39167;52.794;6.892;2022-09-09T04:57:57;14.30;99.90
53282;DHT22;39167;52.794;6.892;2022-09-09T05:00:24;14.30;99.90
53282;DHT22;39167;52.794;6.892;2022-09-09T05:02:50;14.30;99.90
53282;DHT22;39167;52.794;6.892;2022-09-09T05:05:16;14.30;99.90
53282;DHT22;39167;52.794;6.892;2022-09-09T05:07:42;14.30;99.90
53282;DHT22;39167;52.794;6.892;2022-09-09T05:10:09;14.30;99.90
53282;DHT22;39167;52.794;6.892;2022-09-09T05:12:36;14.30;99.90
53282;DHT22;39167;52.794;6.892;2022-09-09T05:15:01;14.30;99.90
53282;DHT22;39167;52.794;6.892;2022-09-09T05:17:27;14.30;99.90
53282;DHT22;39167;52.794;6.892;2022-09-09T05:19:53;14.30;99.90
53282;DHT22;39167;52.794;6.892;2022-09-09T05:22:21;14.30;99.90
53282;DHT22;39167;52.794;6.892;2022-09-09T05:24:49;14.30;99.90
53282;DHT22;39167;52.794;6.892;2022-09-09T05:27:19;14.30;99.90
53282;DHT22;39167;52.794;6.892;2022-09-09T05:29:46;14.30;99.90
53282;DHT22;39167;52.794;6.892;2022-09-09T05:32:11;14.30;99.90
53282;DHT22;39167;52.794;6.892;2022-09-09T05:34:39;14.30;99.90
53282;DHT22;39167;52.794;6.892;2022-09-09T05:37:05;14.30;99.90
53282;DHT22;39167;52.794;6.892;2022-09-09T05:39:30;14.20;99.90
53282;DHT22;39167;52.794;6.892;2022-09-09T05:41:58;14.20;99.90
53282;DHT22;39167;52.794;6.892;2022-09-09T05:44:23;14.20;99.90
53282;DHT22;39167;52.794;6.892;2022-09-09T05:46:53;14.20;99.90
53282;DHT22;39167;52.794;6.892;2022-09-09T05:49:20;14.20;99.90
53282;DHT22;39167;52.794;6.892;2022-09-09T05:51:46;14.20;99.90
53282;DHT22;39167;52.794;6.892;2022-09-09T05:54:13;14.30;99.90
53282;DHT22;39167;52.794;6.892;2022-09-09T05:56:41;14.30;99.90
53282;DHT22;39167;52.794;6.892;2022-09-09T05:59:07;14.30;99.90
53282;DHT22;39167;52.794;6.892;2022-09-09T06:01:35;14.20;99.90
53282;DHT22;39167;52.794;6.892;2022-09-09T06:04:01;14.30;99.90
53282;DHT22;39167;52.794;6.892;2022-09-09T06:06:34;14.30;99.90
53282;DHT22;39167;52.794;6.892;2022-09-09T06:09:06;14.30;99.90
53282;DHT22;39167;52.794;6.892;2022-09-09T06:11:36;14.30;99.90
53282;DHT22;39167;52.794;6.892;2022-09-09T06:14:03;14.30;99.90
53282;DHT22;39167;52.794;6.892;2022-09-09T06:16:30;14.40;99.90
53282;DHT22;39167;52.794;6.892;2022-09-09T06:18:58;14.40;99.90
53282;DHT22;39167;52.794;6.892;2022-09-09T06:21:25;14.40;99.90
53282;DHT22;39167;52.794;6.892;2022-09-09T06:23:51;14.50;99.90
53282;DHT22;39167;52.794;6.892;2022-09-09T06:26:32;14.50;99.90
53282;DHT22;39167;52.794;6.892;2022-09-09T06:28:59;14.50;99.90
53282;DHT22;39167;52.794;6.892;2022-09-09T06:31:26;14.50;99.90
53282;DHT22;39167;52.794;6.892;2022-09-09T06:33:57;14.60;99.90
53282;DHT22;39167;52.794;6.892;2022-09-09T06:36:25;14.60;99.90
53282;DHT22;39167;52.794;6.892;2022-09-09T06:38:51;14.60;99.90
53282;DHT22;39167;52.794;6.892;2022-09-09T06:41:19;14.60;99.90
53282;DHT22;39167;52.794;6.892;2022-09-09T06:43:45;14.70;99.90
53282;DHT22;39167;52.794;6.892;2022-09-09T06:46:14;14.70;99.90
53282;DHT22;39167;52.794;6.892;2022-09-09T06:48:40;14.70;99.90
53282;DHT22;39167;52.794;6.892;2022-09-09T06:53:38;14.70;99.90
53282;DHT22;39167;52.794;6.892;2022-09-09T06:58:42;14.70;99.90
53282;DHT22;39167;52.794;6.892;2022-09-09T07:01:12;14.70;99.90
53282;DHT22;39167;52.794;6.892;2022-09-09T07:03:41;14.70;99.90
53282;DHT22;39167;52.794;6.892;2022-09-09T07:06:09;14.80;99.90
53282;DHT22;39167;52.794;6.892;2022-09-09T07:08:40;14.80;99.90
53282;DHT22;39167;52.794;6.892;2022-09-09T07:11:07;14.80;99.90
53282;DHT22;39167;52.794;6.892;2022-09-09T07:13:34;14.80;99.90
53282;DHT22;39167;52.794;6.892;2022-09-09T07:16:07;14.80;99.90
53282;DHT22;39167;52.794;6.892;2022-09-09T07:18:34;14.90;99.90
53282;DHT22;39167;52.794;6.892;2022-09-09T07:21:01;14.90;99.90
53282;DHT22;39167;52.794;6.892;2022-09-09T07:23:28;15.00;99.90
53282;DHT22;39167;52.794;6.892;2022-09-09T07:25:54;15.00;99.90
53282;DHT22;39167;52.794;6.892;2022-09-09T07:28:20;15.00;99.90
53282;DHT22;39167;52.794;6.892;2022-09-09T07:30:54;15.00;99.90
53282;DHT22;39167;52.794;6.892;2022-09-09T07:33:20;15.00;99.90
53282;DHT22;39167;52.794;6.892;2022-09-09T07:35:45;15.10;99.90
53282;DHT22;39167;52.794;6.892;2022-09-09T07:38:11;15.10;99.90
53282;DHT22;39167;52.794;6.892;2022-09-09T07:40:37;15.10;99.90
53282;DHT22;39167;52.794;6.892;2022-09-09T07:43:03;15.20;99.90
53282;DHT22;39167;52.794;6.892;2022-09-09T07:45:28;15.30;99.90
53282;DHT22;39167;52.794;6.892;2022-09-09T07:47:55;15.30;99.90
53282;DHT22;39167;52.794;6.892;2022-09-09T07:50:23;15.40;99.90
53282;DHT22;39167;52.794;6.892;2022-09-09T07:52:52;15.40;99.90
53282;DHT22;39167;52.794;6.892;2022-09-09T07:55:19;15.40;99.90
53282;DHT22;39167;52.794;6.892;2022-09-09T07:57:45;15.50;99.90
53282;DHT22;39167;52.794;6.892;2022-09-09T08:00:11;15.50;99.90
53282;DHT22;39167;52.794;6.892;2022-09-09T08:02:38;15.60;99.90
53282;DHT22;39167;52.794;6.892;2022-09-09T08:05:04;15.60;99.90
53282;DHT22;39167;52.794;6.892;2022-09-09T08:07:31;15.70;99.90
53282;DHT22;39167;52.794;6.892;2022-09-09T08:09:57;15.80;99.90
53282;DHT22;39167;52.794;6.892;2022-09-09T08:12:23;15.90;99.90
53282;DHT22;39167;52.794;6.892;2022-09-09T08:14:48;15.90;99.90
53282;DHT22;39167;52.794;6.892;2022-09-09T08:17:14;16.00;99.90
53282;DHT22;39167;52.794;6.892;2022-09-09T08:19:40;16.10;99.90
53282;DHT22;39167;52.794;6.892;2022-09-09T08:22:06;16.20;99.90
53282;DHT22;39167;52.794;6.892;2022-09-09T08:24:33;16.30;99.90
53282;DHT22;39167;52.794;6.892;2022-09-09T08:26:58;16.30;99.90
53282;DHT22;39167;52.794;6.892;2022-09-09T08:29:24;16.30;99.90
53282;DHT22;39167;52.794;6.892;2022-09-09T08:31:55;16.40;99.90
53282;DHT22;39167;52.794;6.892;2022-09-09T08:34:23;16.40;99.90
53282;DHT22;39167;52.794;6.892;2022-09-09T08:36:50;16.50;99.90
53282;DHT22;39167;52.794;6.892;2022-09-09T08:39:18;16.50;99.90
53282;DHT22;39167;52.794;6.892;2022-09-09T08:52:48;16.80;99.90
53282;DHT22;39167;52.794;6.892;2022-09-09T08:55:39;16.80;99.90
53282;DHT22;39167;52.794;6.892;2022-09-09T09:00:47;16.90;99.90
53282;DHT22;39167;52.794;6.892;2022-09-09T09:03:19;16.90;99.90
53282;DHT22;39167;52.794;6.892;2022-09-09T09:09:00;17.00;99.90
53282;DHT22;39167;52.794;6.892;2022-09-09T09:11:26;17.10;99.90
53282;DHT22;39167;52.794;6.892;2022-09-09T09:14:00;17.10;99.90
53282;DHT22;39167;52.794;6.892;2022-09-09T09:16:36;17.20;99.90
53282;DHT22;39167;52.794;6.892;2022-09-09T09:19:04;17.20;99.90
53282;DHT22;39167;52.794;6.892;2022-09-09T09:21:41;17.20;99.90
53282;DHT22;39167;52.794;6.892;2022-09-09T09:24:20;17.30;99.90
53282;DHT22;39167;52.794;6.892;2022-09-09T09:26:47;17.40;99.90
53282;DHT22;39167;52.794;6.892;2022-09-09T09:29:16;17.40;99.90
53282;DHT22;39167;52.794;6.892;2022-09-09T09:32:01;17.50;99.90
53282;DHT22;39167;52.794;6.892;2022-09-09T09:34:28;17.60;99.90
53282;DHT22;39167;52.794;6.892;2022-09-09T09:36:59;17.70;99.90
53282;DHT22;39167;52.794;6.892;2022-09-09T09:39:30;17.70;99.90
53282;DHT22;39167;52.794;6.892;2022-09-09T09:41:57;17.70;99.90
53282;DHT22;39167;52.794;6.892;2022-09-09T09:44:29;17.80;99.90
53282;DHT22;39167;52.794;6.892;2022-09-09T09:47:11;17.80;99.90
53282;DHT22;39167;52.794;6.892;2022-09-09T09:49:39;18.10;99.90
53282;DHT22;39167;52.794;6.892;2022-09-09T09:52:06;18.30;99.90
53282;DHT22;39167;52.794;6.892;2022-09-09T09:54:38;18.50;99.90
53282;DHT22;39167;52.794;6.892;2022-09-09T09:57:12;18.80;99.90
53282;DHT22;39167;52.794;6.892;2022-09-09T09:59:38;18.80;99.90
53282;DHT22;39167;52.794;6.892;2022-09-09T10:02:18;19.00;99.90
53282;DHT22;39167;52.794;6.892;2022-09-09T10:04:45;19.00;99.90
53282;DHT22;39167;52.794;6.892;2022-09-09T10:07:17;19.10;99.90
53282;DHT22;39167;52.794;6.892;2022-09-09T10:09:43;19.10;99.90
53282;DHT22;39167;52.794;6.892;2022-09-09T10:23:50;19.10;99.90
53282;DHT22;39167;52.794;6.892;2022-09-09T10:31:48;19.20;99.90
53282;DHT22;39167;52.794;6.892;2022-09-09T10:37:26;19.30;99.90
53282;DHT22;39167;52.794;6.892;2022-09-09T10:40:47;19.40;99.90
53282;DHT22;39167;52.794;6.892;2022-09-09T10:42:48;19.50;99.90
53282;DHT22;39167;52.794;6.892;2022-09-09T10:45:18;19.60;99.90
53282;DHT22;39167;52.794;6.892;2022-09-09T10:50:59;19.80;99.90
53282;DHT22;39167;52.794;6.892;2022-09-09T10:56:16;19.80;99.90
53282;DHT22;39167;52.794;6.892;2022-09-09T10:59:06;19.80;99.90
53282;DHT22;39167;52.794;6.892;2022-09-09T11:04:42;19.70;99.90
53282;DHT22;39167;52.794;6.892;2022-09-09T11:07:14;19.90;99.90
53282;DHT22;39167;52.794;6.892;2022-09-09T11:09:47;20.00;99.90
53282;DHT22;39167;52.794;6.892;2022-09-09T11:12:18;20.10;99.90
53282;DHT22;39167;52.794;6.892;2022-09-09T11:14:53;20.20;99.90
53282;DHT22;39167;52.794;6.892;2022-09-09T11:20:12;20.20;99.90
53282;DHT22;39167;52.794;6.892;2022-09-09T11:22:46;20.20;99.90
53282;DHT22;39167;52.794;6.892;2022-09-09T11:25:38;20.30;99.90
53282;DHT22;39167;52.794;6.892;2022-09-09T11:28:24;20.40;99.90
53282;DHT22;39167;52.794;6.892;2022-09-09T11:31:11;20.50;99.90
53282;DHT22;39167;52.794;6.892;2022-09-09T11:36:16;20.60;99.90
53282;DHT22;39167;52.794;6.892;2022-09-09T11:38:51;20.70;99.90
53282;DHT22;39167;52.794;6.892;2022-09-09T11:41:18;20.80;99.90
53282;DHT22;39167;52.794;6.892;2022-09-09T11:46:15;20.90;99.90
53282;DHT22;39167;52.794;6.892;2022-09-09T11:48:44;20.90;99.90
53282;DHT22;39167;52.794;6.892;2022-09-09T11:53:57;20.80;99.90
53282;DHT22;39167;52.794;6.892;2022-09-09T11:56:44;20.70;99.90
53282;DHT22;39167;52.794;6.892;2022-09-09T11:59:25;20.60;99.90
53282;DHT22;39167;52.794;6.892;2022-09-09T12:04:41;20.50;99.90
53282;DHT22;39167;52.794;6.892;2022-09-09T12:12:30;20.40;99.90
53282;DHT22;39167;52.794;6.892;2022-09-09T12:17:45;20.60;99.90
53282;DHT22;39167;52.794;6.892;2022-09-09T12:25:49;21.20;99.90
53282;DHT22;39167;52.794;6.892;2022-09-09T12:28:27;21.20;99.90
53282;DHT22;39167;52.794;6.892;2022-09-09T12:31:14;21.30;99.90
53282;DHT22;39167;52.794;6.892;2022-09-09T12:33:45;21.20;99.90
53282;DHT22;39167;52.794;6.892;2022-09-09T12:36:29;21.00;99.90
53282;DHT22;39167;52.794;6.892;2022-09-09T12:38:58;20.90;99.90
53282;DHT22;39167;52.794;6.892;2022-09-09T12:41:35;20.80;99.90
53282;DHT22;39167;52.794;6.892;2022-09-09T12:44:08;20.70;99.90
53282;DHT22;39167;52.794;6.892;2022-09-09T12:46:41;20.70;99.90
53282;DHT22;39167;52.794;6.892;2022-09-09T12:49:29;20.60;99.90
53282;DHT22;39167;52.794;6.892;2022-09-09T12:52:17;20.50;99.90
53282;DHT22;39167;52.794;6.892;2022-09-09T12:54:45;20.50;99.90
53282;DHT22;39167;52.794;6.892;2022-09-09T12:57:16;20.60;99.90
53282;DHT22;39167;52.794;6.892;2022-09-09T12:59:43;20.70;99.90
53282;DHT22;39167;52.794;6.892;2022-09-09T13:02:25;20.80;99.90
53282;DHT22;39167;52.794;6.892;2022-09-09T13:04:51;20.70;99.90
53282;DHT22;39167;52.794;6.892;2022-09-09T13:07:21;20.70;99.90
53282;DHT22;39167;52.794;6.892;2022-09-09T13:09:48;20.60;99.90
53282;DHT22;39167;52.794;6.892;2022-09-09T13:12:17;20.60;99.90
53282;DHT22;39167;52.794;6.892;2022-09-09T13:14:45;20.50;99.90
53282;DHT22;39167;52.794;6.892;2022-09-09T13:17:23;20.60;99.90
53282;DHT22;39167;52.794;6.892;2022-09-09T13:19:50;20.50;99.90
53282;DHT22;39167;52.794;6.892;2022-09-09T13:22:37;20.40;99.90
53282;DHT22;39167;52.794;6.892;2022-09-09T13:27:36;20.00;99.90
53282;DHT22;39167;52.794;6.892;2022-09-09T13:30:33;19.80;99.90
53282;DHT22;39167;52.794;6.892;2022-09-09T13:33:02;19.70;99.90
53282;DHT22;39167;52.794;6.892;2022-09-09T13:35:29;19.60;99.90
53282;DHT22;39167;52.794;6.892;2022-09-09T13:37:55;19.60;99.90
53282;DHT22;39167;52.794;6.892;2022-09-09T13:40:23;19.60;99.90
53282;DHT22;39167;52.794;6.892;2022-09-09T13:42:53;19.80;99.90
53282;DHT22;39167;52.794;6.892;2022-09-09T13:45:22;19.90;99.90
53282;DHT22;39167;52.794;6.892;2022-09-09T13:47:49;20.00;99.90
53282;DHT22;39167;52.794;6.892;2022-09-09T13:50:28;20.20;99.90
53282;DHT22;39167;52.794;6.892;2022-09-09T13:52:57;20.30;99.90
53282;DHT22;39167;52.794;6.892;2022-09-09T13:55:26;20.30;99.90
53282;DHT22;39167;52.794;6.892;2022-09-09T13:57:57;20.30;99.90
53282;DHT22;39167;52.794;6.892;2022-09-09T14:00:24;20.30;99.90
53282;DHT22;39167;52.794;6.892;2022-09-09T14:02:51;20.30;99.90
53282;DHT22;39167;52.794;6.892;2022-09-09T14:05:18;20.30;99.90
53282;DHT22;39167;52.794;6.892;2022-09-09T14:07:44;20.20;99.90
53282;DHT22;39167;52.794;6.892;2022-09-09T14:10:11;20.20;99.90
53282;DHT22;39167;52.794;6.892;2022-09-09T14:12:37;20.20;99.90
53282;DHT22;39167;52.794;6.892;2022-09-09T14:15:05;20.10;99.90
53282;DHT22;39167;52.794;6.892;2022-09-09T14:17:31;19.80;99.90
53282;DHT22;39167;52.794;6.892;2022-09-09T14:19:57;19.60;99.90
53282;DHT22;39167;52.794;6.892;2022-09-09T14:22:23;19.40;99.90
53282;DHT22;39167;52.794;6.892;2022-09-09T14:24:49;19.10;99.90
53282;DHT22;39167;52.794;6.892;2022-09-09T14:27:16;18.90;99.90
53282;DHT22;39167;52.794;6.892;2022-09-09T14:29:42;18.70;99.90
53282;DHT22;39167;52.794;6.892;2022-09-09T14:32:10;18.50;99.90
53282;DHT22;39167;52.794;6.892;2022-09-09T14:34:36;18.40;99.90
53282;DHT22;39167;52.794;6.892;2022-09-09T14:37:02;18.30;99.90
53282;DHT22;39167;52.794;6.892;2022-09-09T14:39:27;18.20;99.90
53282;DHT22;39167;52.794;6.892;2022-09-09T14:41:53;18.20;99.90
53282;DHT22;39167;52.794;6.892;2022-09-09T14:44:19;18.20;99.90
53282;DHT22;39167;52.794;6.892;2022-09-09T14:46:45;18.20;99.90
53282;DHT22;39167;52.794;6.892;2022-09-09T14:49:10;18.30;99.90
53282;DHT22;39167;52.794;6.892;2022-09-09T14:51:38;18.20;99.90
53282;DHT22;39167;52.794;6.892;2022-09-09T14:54:04;18.30;99.90
53282;DHT22;39167;52.794;6.892;2022-09-09T14:56:31;18.50;99.90
53282;DHT22;39167;52.794;6.892;2022-09-09T14:59:00;18.70;99.90
53282;DHT22;39167;52.794;6.892;2022-09-09T15:01:30;18.80;99.90
53282;DHT22;39167;52.794;6.892;2022-09-09T15:04:03;19.00;99.90
53282;DHT22;39167;52.794;6.892;2022-09-09T15:06:30;19.10;99.90
53282;DHT22;39167;52.794;6.892;2022-09-09T15:08:59;19.10;99.90
53282;DHT22;39167;52.794;6.892;2022-09-09T15:11:31;19.10;99.90
53282;DHT22;39167;52.794;6.892;2022-09-09T15:13:57;19.20;99.90
53282;DHT22;39167;52.794;6.892;2022-09-09T15:16:27;19.20;99.90
53282;DHT22;39167;52.794;6.892;2022-09-09T15:18:55;19.20;99.90
53282;DHT22;39167;52.794;6.892;2022-09-09T15:21:25;19.20;99.90
53282;DHT22;39167;52.794;6.892;2022-09-09T15:23:51;19.20;99.90
53282;DHT22;39167;52.794;6.892;2022-09-09T15:26:18;19.20;99.90
53282;DHT22;39167;52.794;6.892;2022-09-09T15:28:45;19.20;99.90
53282;DHT22;39167;52.794;6.892;2022-09-09T15:31:15;19.20;99.90
53282;DHT22;39167;52.794;6.892;2022-09-09T15:33:47;19.20;99.90
53282;DHT22;39167;52.794;6.892;2022-09-09T15:38:42;19.00;99.90
53282;DHT22;39167;52.794;6.892;2022-09-09T15:41:10;18.90;99.90
53282;DHT22;39167;52.794;6.892;2022-09-09T15:43:35;18.90;99.90
53282;DHT22;39167;52.794;6.892;2022-09-09T15:46:35;19.00;99.90
53282;DHT22;39167;52.794;6.892;2022-09-09T15:49:07;18.90;99.90
53282;DHT22;39167;52.794;6.892;2022-09-09T15:51:34;18.90;99.90
53282;DHT22;39167;52.794;6.892;2022-09-09T15:54:00;18.90;99.90
53282;DHT22;39167;52.794;6.892;2022-09-09T15:56:27;18.80;99.90
53282;DHT22;39167;52.794;6.892;2022-09-09T15:58:58;18.80;99.90
53282;DHT22;39167;52.794;6.892;2022-09-09T16:01:24;18.80;99.90
53282;DHT22;39167;52.794;6.892;2022-09-09T16:03:50;18.80;99.90
53282;DHT22;39167;52.794;6.892;2022-09-09T16:06:21;18.70;99.90
53282;DHT22;39167;52.794;6.892;2022-09-09T16:08:50;18.70;99.90
53282;DHT22;39167;52.794;6.892;2022-09-09T16:11:18;18.70;99.90
53282;DHT22;39167;52.794;6.892;2022-09-09T16:13:47;18.80;99.90
53282;DHT22;39167;52.794;6.892;2022-09-09T16:16:14;18.80;99.90
53282;DHT22;39167;52.794;6.892;2022-09-09T16:18:46;18.80;99.90
53282;DHT22;39167;52.794;6.892;2022-09-09T16:23:51;18.90;99.90
53282;DHT22;39167;52.794;6.892;2022-09-09T16:26:17;18.80;99.90
53282;DHT22;39167;52.794;6.892;2022-09-09T16:28:43;18.80;99.90
53282;DHT22;39167;52.794;6.892;2022-09-09T16:31:14;18.80;99.90
53282;DHT22;39167;52.794;6.892;2022-09-09T16:33:40;18.70;99.90
53282;DHT22;39167;52.794;6.892;2022-09-09T16:36:08;18.70;99.90
53282;DHT22;39167;52.794;6.892;2022-09-09T16:38:36;18.70;99.90
53282;DHT22;39167;52.794;6.892;2022-09-09T16:41:03;18.70;99.90
53282;DHT22;39167;52.794;6.892;2022-09-09T16:43:30;18.70;99.90
53282;DHT22;39167;52.794;6.892;2022-09-09T16:45:56;18.70;99.90
53282;DHT22;39167;52.794;6.892;2022-09-09T16:48:22;18.60;99.90
53282;DHT22;39167;52.794;6.892;2022-09-09T16:50:47;18.60;99.90
53282;DHT22;39167;52.794;6.892;2022-09-09T16:53:14;18.60;99.90
53282;DHT22;39167;52.794;6.892;2022-09-09T16:55:41;18.60;99.90
53282;DHT22;39167;52.794;6.892;2022-09-09T16:58:10;18.60;99.90
53282;DHT22;39167;52.794;6.892;2022-09-09T17:00:36;18.60;99.90
53282;DHT22;39167;52.794;6.892;2022-09-09T17:03:02;18.50;99.90
53282;DHT22;39167;52.794;6.892;2022-09-09T17:05:28;18.50;99.90
53282;DHT22;39167;52.794;6.892;2022-09-09T17:07:54;18.50;99.90
53282;DHT22;39167;52.794;6.892;2022-09-09T17:10:24;18.50;99.90
53282;DHT22;39167;52.794;6.892;2022-09-09T17:12:50;18.40;99.90
53282;DHT22;39167;52.794;6.892;2022-09-09T17:15:16;18.40;99.90
53282;DHT22;39167;52.794;6.892;2022-09-09T17:17:43;18.30;99.90
53282;DHT22;39167;52.794;6.892;2022-09-09T17:20:10;18.30;99.90
53282;DHT22;39167;52.794;6.892;2022-09-09T17:22:36;18.30;99.90
53282;DHT22;39167;52.794;6.892;2022-09-09T17:25:02;18.20;99.90
53282;DHT22;39167;52.794;6.892;2022-09-09T17:27:29;18.20;99.90
53282;DHT22;39167;52.794;6.892;2022-09-09T17:29:57;18.20;99.90
53282;DHT22;39167;52.794;6.892;2022-09-09T17:32:23;18.20;99.90
53282;DHT22;39167;52.794;6.892;2022-09-09T17:34:49;18.10;99.90
53282;DHT22;39167;52.794;6.892;2022-09-09T17:37:15;18.10;99.90
53282;DHT22;39167;52.794;6.892;2022-09-09T17:39:41;18.10;99.90
53282;DHT22;39167;52.794;6.892;2022-09-09T17:42:07;18.10;99.90
53282;DHT22;39167;52.794;6.892;2022-09-09T17:44:33;18.00;99.90
53282;DHT22;39167;52.794;6.892;2022-09-09T17:46:59;18.00;99.90
53282;DHT22;39167;52.794;6.892;2022-09-09T17:49:25;18.00;99.90
53282;DHT22;39167;52.794;6.892;2022-09-09T17:51:51;18.00;99.90
53282;DHT22;39167;52.794;6.892;2022-09-09T17:54:18;18.00;99.90